Airfield :
LOGIN :

Register | Disclaimer

   EN    FR    IT 

 










Legend :    VFR   Marginal VFR   IFR   Intensive IFR   Very Intensive IFR
Visi :
Ceiling :
>= 8 km
>= 3000ft
5 to 8 km
1000 to 3000 ft
1500m to 5 km
500 to 1000 ft
800 to 1500m
200 to 500 ft
< 800m
< 200 ft
Symbols :   Thunderstorms  Fog  Heavy snow  Heavy precipitations  Wind > 20 kt
SIGMETs :     Misc.  Thunderstorms  Icing  Turbulence  Mountain Waves  Volcanic Ashes






- Airport Elevation : 141 ft
- IATA code : SKS


EKSP - Srydstrup Vojens

CURRENT METAR :
  • 011620Z 27026G39KT 9999 FEW025 BKN039 06/02 Q1002

EXPIRED METARs :
  • 011550Z 27022G32KT 9999 SCT019 BKN035 06/02 Q1002
  • 011520Z 28026G38KT 9999 FEW022 BKN039 06/02 Q1002
  • 011450Z 28023KT 9999 FEW022 BKN044 06/02 Q1001
  • 011420Z 28021KT 9999 SCT020 BKN035 06/03 Q1001 TEMPO 28020G38KT 3000 -SHRAGS SCT020CB
  • 011350Z 28023G33KT 9999 FEW020 SCT024 BKN043 06/03 Q1001 TEMPO 28020G38KT 3000 -SHRAGS SCT020CB

TAF TAF EKSP
Valid from the 01 at 15:00 until the 02 at 15:00 UTC


011421Z 0115/0215 28020G32KT 9999 BKN020
TEMPO 0115/0122 30032G48KT 3000 SHRAGS BKN010 SCT020CB
BECMG 0122/0124 31015G28KT
TEMPO 0122/0207 4000 -SHRAGS SCT020CB
BECMG 0206/0208 29010KT



MET'MAP, your aeronautical weather chart ! - Copyright ORBIFLY December 2007 - Disclaimer

ORBIFLY MET'MAP TEAM :

Programming & Development : Alexandra Zaïnal
Original concept : Baudouin d'Aumeries
Technical & hardware support : Manuel Goepfert
Assistance : Marc-Olivier Méhu




SOURCES & CREDITS :

   NOAA